sensor_id;sensor_type;location;lat;lon;timestamp;temperature;humidity
34135;DHT22;20410;55.578;12.968;2023-06-01T00:02:02;14.50;99.90
34135;DHT22;20410;55.578;12.968;2023-06-01T00:04:28;14.50;99.90
34135;DHT22;20410;55.578;12.968;2023-06-01T00:06:53;14.40;99.90
34135;DHT22;20410;55.578;12.968;2023-06-01T00:09:19;14.40;99.90
34135;DHT22;20410;55.578;12.968;2023-06-01T00:11:44;14.40;99.90
34135;DHT22;20410;55.578;12.968;2023-06-01T00:14:10;14.30;99.90
34135;DHT22;20410;55.578;12.968;2023-06-01T00:16:36;14.30;99.90
34135;DHT22;20410;55.578;12.968;2023-06-01T00:19:02;14.30;99.90
34135;DHT22;20410;55.578;12.968;2023-06-01T00:21:29;14.30;99.90
34135;DHT22;20410;55.578;12.968;2023-06-01T00:23:57;14.30;99.90
34135;DHT22;20410;55.578;12.968;2023-06-01T00:26:23;14.40;99.90
34135;DHT22;20410;55.578;12.968;2023-06-01T00:28:49;14.30;99.90
34135;DHT22;20410;55.578;12.968;2023-06-01T00:31:14;14.30;99.90
34135;DHT22;20410;55.578;12.968;2023-06-01T00:33:40;14.30;99.90
34135;DHT22;20410;55.578;12.968;2023-06-01T00:36:06;14.20;99.90
34135;DHT22;20410;55.578;12.968;2023-06-01T00:38:31;14.10;99.90
34135;DHT22;20410;55.578;12.968;2023-06-01T00:40:57;14.10;99.90
34135;DHT22;20410;55.578;12.968;2023-06-01T00:43:23;14.10;99.90
34135;DHT22;20410;55.578;12.968;2023-06-01T00:45:48;14.10;99.90
34135;DHT22;20410;55.578;12.968;2023-06-01T00:48:15;14.00;99.90
34135;DHT22;20410;55.578;12.968;2023-06-01T00:50:42;14.00;99.90
34135;DHT22;20410;55.578;12.968;2023-06-01T00:53:12;13.90;99.90
34135;DHT22;20410;55.578;12.968;2023-06-01T00:55:41;13.80;99.90
34135;DHT22;20410;55.578;12.968;2023-06-01T00:58:07;13.90;99.90
34135;DHT22;20410;55.578;12.968;2023-06-01T01:00:32;13.80;99.90
34135;DHT22;20410;55.578;12.968;2023-06-01T01:02:58;13.80;99.90
34135;DHT22;20410;55.578;12.968;2023-06-01T01:05:26;13.80;99.90
34135;DHT22;20410;55.578;12.968;2023-06-01T01:08:05;13.80;99.90
34135;DHT22;20410;55.578;12.968;2023-06-01T01:10:55;13.80;99.90
34135;DHT22;20410;55.578;12.968;2023-06-01T01:13:55;13.90;99.90
34135;DHT22;20410;55.578;12.968;2023-06-01T01:16:26;13.90;99.90
34135;DHT22;20410;55.578;12.968;2023-06-01T01:21:53;13.90;99.90
34135;DHT22;20410;55.578;12.968;2023-06-01T01:29:24;13.90;99.90
34135;DHT22;20410;55.578;12.968;2023-06-01T01:31:52;13.80;99.90
34135;DHT22;20410;55.578;12.968;2023-06-01T01:34:20;13.80;99.90
34135;DHT22;20410;55.578;12.968;2023-06-01T01:36:46;13.80;99.90
34135;DHT22;20410;55.578;12.968;2023-06-01T01:39:12;13.80;99.90
34135;DHT22;20410;55.578;12.968;2023-06-01T01:41:38;13.80;99.90
34135;DHT22;20410;55.578;12.968;2023-06-01T01:44:04;13.80;99.90
34135;DHT22;20410;55.578;12.968;2023-06-01T01:46:59;13.70;99.90
34135;DHT22;20410;55.578;12.968;2023-06-01T01:49:41;13.80;99.90
34135;DHT22;20410;55.578;12.968;2023-06-01T01:52:26;13.80;99.90
34135;DHT22;20410;55.578;12.968;2023-06-01T01:54:57;13.80;99.90
34135;DHT22;20410;55.578;12.968;2023-06-01T01:57:24;13.80;99.90
34135;DHT22;20410;55.578;12.968;2023-06-01T01:59:52;13.80;99.90
34135;DHT22;20410;55.578;12.968;2023-06-01T02:02:18;13.80;99.90
34135;DHT22;20410;55.578;12.968;2023-06-01T02:04:45;13.70;99.90
34135;DHT22;20410;55.578;12.968;2023-06-01T02:07:14;13.60;99.90
34135;DHT22;20410;55.578;12.968;2023-06-01T02:09:40;13.60;99.90
34135;DHT22;20410;55.578;12.968;2023-06-01T02:12:06;13.60;99.90
34135;DHT22;20410;55.578;12.968;2023-06-01T02:14:32;13.60;99.90
34135;DHT22;20410;55.578;12.968;2023-06-01T02:16:58;13.60;99.90
34135;DHT22;20410;55.578;12.968;2023-06-01T02:19:26;13.60;99.90
34135;DHT22;20410;55.578;12.968;2023-06-01T02:21:52;13.60;99.90
34135;DHT22;20410;55.578;12.968;2023-06-01T02:24:17;13.60;99.90
34135;DHT22;20410;55.578;12.968;2023-06-01T02:26:45;13.60;99.90
34135;DHT22;20410;55.578;12.968;2023-06-01T02:29:12;13.60;99.90
34135;DHT22;20410;55.578;12.968;2023-06-01T02:31:38;13.60;99.90
34135;DHT22;20410;55.578;12.968;2023-06-01T02:34:03;13.50;99.90
34135;DHT22;20410;55.578;12.968;2023-06-01T02:36:29;13.50;99.90
34135;DHT22;20410;55.578;12.968;2023-06-01T02:38:57;13.50;99.90
34135;DHT22;20410;55.578;12.968;2023-06-01T02:41:23;13.60;99.90
34135;DHT22;20410;55.578;12.968;2023-06-01T02:43:49;13.50;99.90
34135;DHT22;20410;55.578;12.968;2023-06-01T02:46:18;13.50;99.90
34135;DHT22;20410;55.578;12.968;2023-06-01T02:48:45;13.40;99.90
34135;DHT22;20410;55.578;12.968;2023-06-01T02:51:11;13.40;99.90
34135;DHT22;20410;55.578;12.968;2023-06-01T02:53:39;13.40;99.90
34135;DHT22;20410;55.578;12.968;2023-06-01T02:56:05;13.40;99.90
34135;DHT22;20410;55.578;12.968;2023-06-01T02:58:31;13.40;99.90
34135;DHT22;20410;55.578;12.968;2023-06-01T03:00:56;13.30;99.90
34135;DHT22;20410;55.578;12.968;2023-06-01T03:03:25;13.40;99.90
34135;DHT22;20410;55.578;12.968;2023-06-01T03:05:52;13.40;99.90
34135;DHT22;20410;55.578;12.968;2023-06-01T03:08:17;13.40;99.90
34135;DHT22;20410;55.578;12.968;2023-06-01T03:10:44;13.40;99.90
34135;DHT22;20410;55.578;12.968;2023-06-01T03:13:09;13.30;99.90
34135;DHT22;20410;55.578;12.968;2023-06-01T03:15:35;13.30;99.90
34135;DHT22;20410;55.578;12.968;2023-06-01T03:18:03;13.30;99.90
34135;DHT22;20410;55.578;12.968;2023-06-01T03:20:29;13.30;99.90
34135;DHT22;20410;55.578;12.968;2023-06-01T03:22:55;13.30;99.90
34135;DHT22;20410;55.578;12.968;2023-06-01T03:25:21;13.30;99.90
34135;DHT22;20410;55.578;12.968;2023-06-01T03:27:46;13.30;99.90
34135;DHT22;20410;55.578;12.968;2023-06-01T03:30:12;13.30;99.90
34135;DHT22;20410;55.578;12.968;2023-06-01T03:32:38;13.20;99.90
34135;DHT22;20410;55.578;12.968;2023-06-01T03:35:05;13.30;99.90
34135;DHT22;20410;55.578;12.968;2023-06-01T03:37:33;13.20;99.90
34135;DHT22;20410;55.578;12.968;2023-06-01T03:40:00;13.30;99.90
34135;DHT22;20410;55.578;12.968;2023-06-01T03:42:26;13.40;99.90
34135;DHT22;20410;55.578;12.968;2023-06-01T03:44:52;13.50;99.90
34135;DHT22;20410;55.578;12.968;2023-06-01T03:47:17;13.50;99.90
34135;DHT22;20410;55.578;12.968;2023-06-01T03:49:43;13.50;99.90
34135;DHT22;20410;55.578;12.968;2023-06-01T03:52:09;13.50;99.90
34135;DHT22;20410;55.578;12.968;2023-06-01T03:54:35;13.50;99.90
34135;DHT22;20410;55.578;12.968;2023-06-01T03:57:01;13.50;99.90
34135;DHT22;20410;55.578;12.968;2023-06-01T03:59:26;13.50;99.90
34135;DHT22;20410;55.578;12.968;2023-06-01T04:01:53;13.50;99.90
34135;DHT22;20410;55.578;12.968;2023-06-01T04:04:24;13.60;99.90
34135;DHT22;20410;55.578;12.968;2023-06-01T04:06:50;13.60;99.90
34135;DHT22;20410;55.578;12.968;2023-06-01T04:09:18;13.60;99.90
34135;DHT22;20410;55.578;12.968;2023-06-01T04:11:44;13.50;99.90
34135;DHT22;20410;55.578;12.968;2023-06-01T04:14:09;13.40;99.90
34135;DHT22;20410;55.578;12.968;2023-06-01T04:16:35;13.50;99.90
34135;DHT22;20410;55.578;12.968;2023-06-01T04:19:01;13.50;99.90
34135;DHT22;20410;55.578;12.968;2023-06-01T04:21:27;13.50;99.90
34135;DHT22;20410;55.578;12.968;2023-06-01T04:23:52;13.50;99.90
34135;DHT22;20410;55.578;12.968;2023-06-01T04:26:18;13.60;99.90
34135;DHT22;20410;55.578;12.968;2023-06-01T04:28:44;13.60;99.90
34135;DHT22;20410;55.578;12.968;2023-06-01T04:31:11;13.60;99.90
34135;DHT22;20410;55.578;12.968;2023-06-01T04:33:45;13.60;99.90
34135;DHT22;20410;55.578;12.968;2023-06-01T04:36:19;13.70;99.90
34135;DHT22;20410;55.578;12.968;2023-06-01T04:38:49;13.60;96.10
34135;DHT22;20410;55.578;12.968;2023-06-01T04:41:20;13.70;99.90
34135;DHT22;20410;55.578;12.968;2023-06-01T04:43:50;13.70;99.20
34135;DHT22;20410;55.578;12.968;2023-06-01T04:46:20;13.60;99.70
34135;DHT22;20410;55.578;12.968;2023-06-01T04:48:49;13.60;99.90
34135;DHT22;20410;55.578;12.968;2023-06-01T04:51:17;13.60;99.90
34135;DHT22;20410;55.578;12.968;2023-06-01T04:53:45;13.80;98.40
34135;DHT22;20410;55.578;12.968;2023-06-01T04:56:15;13.80;98.20
34135;DHT22;20410;55.578;12.968;2023-06-01T04:58:41;13.70;97.30
34135;DHT22;20410;55.578;12.968;2023-06-01T05:01:07;13.70;99.90
34135;DHT22;20410;55.578;12.968;2023-06-01T05:03:32;13.80;99.40
34135;DHT22;20410;55.578;12.968;2023-06-01T05:05:58;14.00;96.60
34135;DHT22;20410;55.578;12.968;2023-06-01T05:08:24;14.20;91.40
34135;DHT22;20410;55.578;12.968;2023-06-01T05:10:49;14.20;86.10
34135;DHT22;20410;55.578;12.968;2023-06-01T05:13:15;14.30;84.70
34135;DHT22;20410;55.578;12.968;2023-06-01T05:15:41;14.30;83.80
34135;DHT22;20410;55.578;12.968;2023-06-01T05:18:06;14.30;88.30
34135;DHT22;20410;55.578;12.968;2023-06-01T05:20:32;14.20;84.30
34135;DHT22;20410;55.578;12.968;2023-06-01T05:22:57;14.20;86.20
34135;DHT22;20410;55.578;12.968;2023-06-01T05:25:23;14.30;80.40
34135;DHT22;20410;55.578;12.968;2023-06-01T05:27:48;14.30;78.60
34135;DHT22;20410;55.578;12.968;2023-06-01T05:30:14;14.30;76.50
34135;DHT22;20410;55.578;12.968;2023-06-01T05:32:40;14.40;73.70
34135;DHT22;20410;55.578;12.968;2023-06-01T05:35:06;14.40;80.50
34135;DHT22;20410;55.578;12.968;2023-06-01T05:37:31;14.40;80.80
34135;DHT22;20410;55.578;12.968;2023-06-01T05:39:57;14.50;83.40
34135;DHT22;20410;55.578;12.968;2023-06-01T05:42:23;14.60;81.30
34135;DHT22;20410;55.578;12.968;2023-06-01T05:44:48;14.80;67.20
34135;DHT22;20410;55.578;12.968;2023-06-01T05:47:14;14.70;66.50
34135;DHT22;20410;55.578;12.968;2023-06-01T05:49:39;14.80;61.20
34135;DHT22;20410;55.578;12.968;2023-06-01T05:52:05;14.70;66.20
34135;DHT22;20410;55.578;12.968;2023-06-01T05:54:31;14.70;68.50
34135;DHT22;20410;55.578;12.968;2023-06-01T05:56:57;14.80;70.30
34135;DHT22;20410;55.578;12.968;2023-06-01T05:59:22;14.80;55.60
34135;DHT22;20410;55.578;12.968;2023-06-01T06:01:48;14.70;58.50
34135;DHT22;20410;55.578;12.968;2023-06-01T06:04:13;14.80;64.00
34135;DHT22;20410;55.578;12.968;2023-06-01T06:06:40;14.80;70.30
34135;DHT22;20410;55.578;12.968;2023-06-01T06:09:06;14.90;67.60
34135;DHT22;20410;55.578;12.968;2023-06-01T06:11:31;15.00;63.20
34135;DHT22;20410;55.578;12.968;2023-06-01T06:13:57;15.10;63.20
34135;DHT22;20410;55.578;12.968;2023-06-01T06:16:22;15.10;43.70
34135;DHT22;20410;55.578;12.968;2023-06-01T06:18:48;15.10;49.50
34135;DHT22;20410;55.578;12.968;2023-06-01T06:21:14;15.00;58.60
34135;DHT22;20410;55.578;12.968;2023-06-01T06:23:39;15.00;48.20
34135;DHT22;20410;55.578;12.968;2023-06-01T06:26:06;15.10;53.60
34135;DHT22;20410;55.578;12.968;2023-06-01T06:28:32;15.10;62.90
34135;DHT22;20410;55.578;12.968;2023-06-01T06:30:58;15.10;47.20
34135;DHT22;20410;55.578;12.968;2023-06-01T06:33:23;15.10;56.10
34135;DHT22;20410;55.578;12.968;2023-06-01T06:35:49;15.10;42.60
34135;DHT22;20410;55.578;12.968;2023-06-01T06:38:15;15.20;44.90
34135;DHT22;20410;55.578;12.968;2023-06-01T06:40:42;15.10;48.60
34135;DHT22;20410;55.578;12.968;2023-06-01T06:43:08;15.00;45.30
34135;DHT22;20410;55.578;12.968;2023-06-01T06:45:34;15.10;53.40
34135;DHT22;20410;55.578;12.968;2023-06-01T06:47:59;15.00;47.00
34135;DHT22;20410;55.578;12.968;2023-06-01T06:50:25;15.00;42.60
34135;DHT22;20410;55.578;12.968;2023-06-01T06:52:51;15.20;47.60
34135;DHT22;20410;55.578;12.968;2023-06-01T06:55:17;15.30;43.30
34135;DHT22;20410;55.578;12.968;2023-06-01T06:57:42;15.50;38.80
34135;DHT22;20410;55.578;12.968;2023-06-01T07:00:08;15.50;38.20
34135;DHT22;20410;55.578;12.968;2023-06-01T07:02:42;15.40;63.20
34135;DHT22;20410;55.578;12.968;2023-06-01T07:05:10;15.50;55.90
34135;DHT22;20410;55.578;12.968;2023-06-01T07:07:36;15.60;39.20
34135;DHT22;20410;55.578;12.968;2023-06-01T07:10:02;15.90;32.70
34135;DHT22;20410;55.578;12.968;2023-06-01T07:12:29;16.00;28.00
34135;DHT22;20410;55.578;12.968;2023-06-01T07:14:55;16.10;29.50
34135;DHT22;20410;55.578;12.968;2023-06-01T07:17:21;15.90;22.70
34135;DHT22;20410;55.578;12.968;2023-06-01T07:19:46;15.80;34.00
34135;DHT22;20410;55.578;12.968;2023-06-01T07:22:12;15.70;28.80
34135;DHT22;20410;55.578;12.968;2023-06-01T07:24:37;15.80;38.00
34135;DHT22;20410;55.578;12.968;2023-06-01T07:27:03;15.90;28.60
34135;DHT22;20410;55.578;12.968;2023-06-01T07:29:30;16.00;27.70
34135;DHT22;20410;55.578;12.968;2023-06-01T07:31:57;16.00;28.30
34135;DHT22;20410;55.578;12.968;2023-06-01T07:34:23;15.80;35.40
34135;DHT22;20410;55.578;12.968;2023-06-01T07:36:50;15.90;34.70
34135;DHT22;20410;55.578;12.968;2023-06-01T07:39:16;15.70;47.40
34135;DHT22;20410;55.578;12.968;2023-06-01T07:41:44;15.70;53.20
34135;DHT22;20410;55.578;12.968;2023-06-01T07:44:10;15.50;44.60
34135;DHT22;20410;55.578;12.968;2023-06-01T07:46:36;15.50;59.00
34135;DHT22;20410;55.578;12.968;2023-06-01T07:49:01;15.50;68.40
34135;DHT22;20410;55.578;12.968;2023-06-01T07:51:28;15.60;73.50
34135;DHT22;20410;55.578;12.968;2023-06-01T07:53:54;15.80;68.70
34135;DHT22;20410;55.578;12.968;2023-06-01T07:56:23;15.60;61.10
34135;DHT22;20410;55.578;12.968;2023-06-01T07:58:52;15.60;57.10
34135;DHT22;20410;55.578;12.968;2023-06-01T08:01:18;15.80;76.00
34135;DHT22;20410;55.578;12.968;2023-06-01T08:03:44;15.80;51.70
34135;DHT22;20410;55.578;12.968;2023-06-01T08:06:10;15.70;63.40
34135;DHT22;20410;55.578;12.968;2023-06-01T08:08:36;15.80;64.50
34135;DHT22;20410;55.578;12.968;2023-06-01T08:11:02;16.00;49.40
34135;DHT22;20410;55.578;12.968;2023-06-01T08:13:28;16.10;59.80
34135;DHT22;20410;55.578;12.968;2023-06-01T08:15:53;16.10;30.60
34135;DHT22;20410;55.578;12.968;2023-06-01T08:18:19;16.30;31.70
34135;DHT22;20410;55.578;12.968;2023-06-01T08:20:45;16.50;28.70
34135;DHT22;20410;55.578;12.968;2023-06-01T08:23:11;16.40;29.40
34135;DHT22;20410;55.578;12.968;2023-06-01T08:25:37;16.10;43.40
34135;DHT22;20410;55.578;12.968;2023-06-01T08:28:03;16.00;49.80
34135;DHT22;20410;55.578;12.968;2023-06-01T08:30:28;16.00;53.10
34135;DHT22;20410;55.578;12.968;2023-06-01T08:32:54;16.40;42.20
34135;DHT22;20410;55.578;12.968;2023-06-01T08:35:20;16.60;21.00
34135;DHT22;20410;55.578;12.968;2023-06-01T08:37:47;16.50;23.90
34135;DHT22;20410;55.578;12.968;2023-06-01T08:40:13;16.70;21.80
34135;DHT22;20410;55.578;12.968;2023-06-01T08:42:51;16.80;18.40
34135;DHT22;20410;55.578;12.968;2023-06-01T08:45:23;16.70;21.30
34135;DHT22;20410;55.578;12.968;2023-06-01T08:47:53;16.70;27.70
34135;DHT22;20410;55.578;12.968;2023-06-01T08:50:18;16.80;27.90
34135;DHT22;20410;55.578;12.968;2023-06-01T08:52:46;17.00;18.10
34135;DHT22;20410;55.578;12.968;2023-06-01T08:55:13;17.00;9.90
34135;DHT22;20410;55.578;12.968;2023-06-01T08:57:40;16.90;16.70
34135;DHT22;20410;55.578;12.968;2023-06-01T09:00:08;16.80;11.40
34135;DHT22;20410;55.578;12.968;2023-06-01T09:02:34;16.90;14.70
34135;DHT22;20410;55.578;12.968;2023-06-01T09:05:00;17.10;16.40
34135;DHT22;20410;55.578;12.968;2023-06-01T09:07:26;17.20;11.30
34135;DHT22;20410;55.578;12.968;2023-06-01T09:09:51;17.30;11.90
34135;DHT22;20410;55.578;12.968;2023-06-01T09:14:43;17.10;15.60
34135;DHT22;20410;55.578;12.968;2023-06-01T09:17:13;17.20;9.30
34135;DHT22;20410;55.578;12.968;2023-06-01T09:19:45;17.30;16.70
34135;DHT22;20410;55.578;12.968;2023-06-01T09:22:11;17.40;1.00
34135;DHT22;20410;55.578;12.968;2023-06-01T09:24:40;17.30;1.00
34135;DHT22;20410;55.578;12.968;2023-06-01T09:27:08;17.20;22.60
34135;DHT22;20410;55.578;12.968;2023-06-01T09:29:34;17.10;13.10
34135;DHT22;20410;55.578;12.968;2023-06-01T09:32:00;17.20;27.70
34135;DHT22;20410;55.578;12.968;2023-06-01T09:34:26;17.20;18.70
34135;DHT22;20410;55.578;12.968;2023-06-01T09:36:54;17.30;8.80
34135;DHT22;20410;55.578;12.968;2023-06-01T09:39:24;17.20;19.50
34135;DHT22;20410;55.578;12.968;2023-06-01T09:41:57;17.40;29.60
34135;DHT22;20410;55.578;12.968;2023-06-01T09:44:32;17.60;10.10
34135;DHT22;20410;55.578;12.968;2023-06-01T09:47:02;17.70;1.00
34135;DHT22;20410;55.578;12.968;2023-06-01T09:49:36;17.80;3.80
34135;DHT22;20410;55.578;12.968;2023-06-01T09:54:50;17.60;3.10
34135;DHT22;20410;55.578;12.968;2023-06-01T09:57:24;17.70;1.20
34135;DHT22;20410;55.578;12.968;2023-06-01T09:59:50;17.60;16.90
34135;DHT22;20410;55.578;12.968;2023-06-01T10:02:24;17.80;1.00
34135;DHT22;20410;55.578;12.968;2023-06-01T10:04:51;18.10;1.00
34135;DHT22;20410;55.578;12.968;2023-06-01T10:07:26;18.20;1.00
34135;DHT22;20410;55.578;12.968;2023-06-01T10:09:57;18.20;1.00
34135;DHT22;20410;55.578;12.968;2023-06-01T10:12:26;18.10;1.00
34135;DHT22;20410;55.578;12.968;2023-06-01T10:14:53;18.40;1.00
34135;DHT22;20410;55.578;12.968;2023-06-01T10:17:20;18.40;1.00
34135;DHT22;20410;55.578;12.968;2023-06-01T10:19:46;18.30;1.00
34135;DHT22;20410;55.578;12.968;2023-06-01T10:22:13;18.50;1.00
34135;DHT22;20410;55.578;12.968;2023-06-01T10:24:40;18.60;1.00
34135;DHT22;20410;55.578;12.968;2023-06-01T10:27:27;18.60;1.00
34135;DHT22;20410;55.578;12.968;2023-06-01T10:29:55;18.90;1.00
34135;DHT22;20410;55.578;12.968;2023-06-01T10:32:46;19.10;1.00
34135;DHT22;20410;55.578;12.968;2023-06-01T10:40:36;19.10;1.00
34135;DHT22;20410;55.578;12.968;2023-06-01T10:43:02;19.20;1.00
34135;DHT22;20410;55.578;12.968;2023-06-01T10:48:03;19.60;1.00
34135;DHT22;20410;55.578;12.968;2023-06-01T10:50:30;19.80;1.00
34135;DHT22;20410;55.578;12.968;2023-06-01T10:52:56;19.60;1.00
34135;DHT22;20410;55.578;12.968;2023-06-01T10:55:24;19.40;1.00
34135;DHT22;20410;55.578;12.968;2023-06-01T10:57:51;19.40;1.00
34135;DHT22;20410;55.578;12.968;2023-06-01T11:00:21;19.50;1.00
34135;DHT22;20410;55.578;12.968;2023-06-01T11:03:02;19.70;1.00
34135;DHT22;20410;55.578;12.968;2023-06-01T11:05:51;19.80;1.00
34135;DHT22;20410;55.578;12.968;2023-06-01T11:13:22;20.30;1.00
34135;DHT22;20410;55.578;12.968;2023-06-01T11:19:16;20.10;1.00
34135;DHT22;20410;55.578;12.968;2023-06-01T11:24:04;20.10;1.00
34135;DHT22;20410;55.578;12.968;2023-06-01T11:26:46;20.00;1.00
34135;DHT22;20410;55.578;12.968;2023-06-01T11:29:24;20.00;1.00
34135;DHT22;20410;55.578;12.968;2023-06-01T11:31:58;20.10;1.00
34135;DHT22;20410;55.578;12.968;2023-06-01T11:34:33;20.20;1.00
34135;DHT22;20410;55.578;12.968;2023-06-01T11:37:00;20.30;1.00
34135;DHT22;20410;55.578;12.968;2023-06-01T11:39:27;20.50;1.00
34135;DHT22;20410;55.578;12.968;2023-06-01T11:44:36;20.90;1.00
34135;DHT22;20410;55.578;12.968;2023-06-01T11:47:03;20.60;1.00
34135;DHT22;20410;55.578;12.968;2023-06-01T11:49:31;20.30;1.00
34135;DHT22;20410;55.578;12.968;2023-06-01T11:52:08;20.30;1.00
34135;DHT22;20410;55.578;12.968;2023-06-01T11:54:34;20.40;1.00
34135;DHT22;20410;55.578;12.968;2023-06-01T11:57:02;20.30;1.00
34135;DHT22;20410;55.578;12.968;2023-06-01T11:59:39;20.20;1.00
34135;DHT22;20410;55.578;12.968;2023-06-01T12:02:19;20.20;1.00
34135;DHT22;20410;55.578;12.968;2023-06-01T12:07:49;20.00;1.00
34135;DHT22;20410;55.578;12.968;2023-06-01T12:10:20;20.30;1.00
34135;DHT22;20410;55.578;12.968;2023-06-01T12:12:46;20.30;1.00
34135;DHT22;20410;55.578;12.968;2023-06-01T12:15:14;20.40;1.00
34135;DHT22;20410;55.578;12.968;2023-06-01T12:17:54;20.30;1.00
34135;DHT22;20410;55.578;12.968;2023-06-01T12:20:30;20.50;1.00
34135;DHT22;20410;55.578;12.968;2023-06-01T12:22:56;20.40;1.00
34135;DHT22;20410;55.578;12.968;2023-06-01T12:25:23;20.30;1.00
34135;DHT22;20410;55.578;12.968;2023-06-01T12:30:26;20.40;1.00
34135;DHT22;20410;55.578;12.968;2023-06-01T12:32:52;20.50;1.00
34135;DHT22;20410;55.578;12.968;2023-06-01T12:35:18;20.50;1.00
34135;DHT22;20410;55.578;12.968;2023-06-01T12:37:43;20.50;1.00
34135;DHT22;20410;55.578;12.968;2023-06-01T12:40:09;20.60;1.00
34135;DHT22;20410;55.578;12.968;2023-06-01T12:42:36;20.70;1.00
34135;DHT22;20410;55.578;12.968;2023-06-01T12:45:02;20.80;1.00
34135;DHT22;20410;55.578;12.968;2023-06-01T12:47:41;20.50;1.00
34135;DHT22;20410;55.578;12.968;2023-06-01T12:50:11;20.50;1.00
34135;DHT22;20410;55.578;12.968;2023-06-01T12:52:38;20.60;1.00
34135;DHT22;20410;55.578;12.968;2023-06-01T12:55:04;20.70;1.00
34135;DHT22;20410;55.578;12.968;2023-06-01T12:57:31;20.80;1.00
34135;DHT22;20410;55.578;12.968;2023-06-01T12:59:57;20.60;1.00
34135;DHT22;20410;55.578;12.968;2023-06-01T13:02:22;20.70;1.00
34135;DHT22;20410;55.578;12.968;2023-06-01T13:04:49;20.70;1.00
34135;DHT22;20410;55.578;12.968;2023-06-01T13:07:15;20.70;1.00
34135;DHT22;20410;55.578;12.968;2023-06-01T13:09:41;20.70;1.00
34135;DHT22;20410;55.578;12.968;2023-06-01T13:12:07;20.90;1.00
34135;DHT22;20410;55.578;12.968;2023-06-01T13:14:33;21.00;1.00
34135;DHT22;20410;55.578;12.968;2023-06-01T13:16:59;21.10;1.00
34135;DHT22;20410;55.578;12.968;2023-06-01T13:19:24;21.00;1.00
34135;DHT22;20410;55.578;12.968;2023-06-01T13:21:51;20.90;1.00
34135;DHT22;20410;55.578;12.968;2023-06-01T13:24:17;20.70;1.00
34135;DHT22;20410;55.578;12.968;2023-06-01T13:26:43;20.50;1.00
34135;DHT22;20410;55.578;12.968;2023-06-01T13:29:09;20.30;1.00
34135;DHT22;20410;55.578;12.968;2023-06-01T13:31:35;20.30;1.00
34135;DHT22;20410;55.578;12.968;2023-06-01T13:34:02;20.30;1.00
34135;DHT22;20410;55.578;12.968;2023-06-01T13:36:29;20.50;1.00
34135;DHT22;20410;55.578;12.968;2023-06-01T13:38:55;20.60;1.00
34135;DHT22;20410;55.578;12.968;2023-06-01T13:41:21;20.60;1.00
34135;DHT22;20410;55.578;12.968;2023-06-01T13:43:47;20.70;1.00
34135;DHT22;20410;55.578;12.968;2023-06-01T13:46:12;20.80;1.00
34135;DHT22;20410;55.578;12.968;2023-06-01T13:48:38;20.80;1.00
34135;DHT22;20410;55.578;12.968;2023-06-01T13:51:05;20.90;1.00
34135;DHT22;20410;55.578;12.968;2023-06-01T13:53:31;20.80;1.00
34135;DHT22;20410;55.578;12.968;2023-06-01T13:55:58;20.90;1.00
34135;DHT22;20410;55.578;12.968;2023-06-01T13:58:24;20.80;1.00
34135;DHT22;20410;55.578;12.968;2023-06-01T14:00:49;20.80;1.00
34135;DHT22;20410;55.578;12.968;2023-06-01T14:03:15;20.90;1.00
34135;DHT22;20410;55.578;12.968;2023-06-01T14:05:41;20.60;1.00
34135;DHT22;20410;55.578;12.968;2023-06-01T14:08:06;20.60;1.00
34135;DHT22;20410;55.578;12.968;2023-06-01T14:10:33;20.80;1.00
34135;DHT22;20410;55.578;12.968;2023-06-01T14:13:00;20.80;1.00
34135;DHT22;20410;55.578;12.968;2023-06-01T14:15:25;20.80;1.00
34135;DHT22;20410;55.578;12.968;2023-06-01T14:17:51;20.90;1.00
34135;DHT22;20410;55.578;12.968;2023-06-01T14:20:17;20.70;1.00
34135;DHT22;20410;55.578;12.968;2023-06-01T14:22:42;20.80;1.00
34135;DHT22;20410;55.578;12.968;2023-06-01T14:25:08;20.90;1.00
34135;DHT22;20410;55.578;12.968;2023-06-01T14:27:34;20.70;1.00
34135;DHT22;20410;55.578;12.968;2023-06-01T14:30:03;20.70;1.00
34135;DHT22;20410;55.578;12.968;2023-06-01T14:32:30;20.80;1.00
34135;DHT22;20410;55.578;12.968;2023-06-01T14:34:55;20.80;1.00
34135;DHT22;20410;55.578;12.968;2023-06-01T14:37:21;20.50;1.00
34135;DHT22;20410;55.578;12.968;2023-06-01T14:39:47;20.40;1.00
34135;DHT22;20410;55.578;12.968;2023-06-01T14:42:12;20.20;1.00
34135;DHT22;20410;55.578;12.968;2023-06-01T14:44:38;19.90;1.00
34135;DHT22;20410;55.578;12.968;2023-06-01T14:47:04;20.00;1.00
34135;DHT22;20410;55.578;12.968;2023-06-01T14:49:30;20.30;1.00
34135;DHT22;20410;55.578;12.968;2023-06-01T14:51:55;20.30;1.00
34135;DHT22;20410;55.578;12.968;2023-06-01T14:54:21;20.40;1.00
34135;DHT22;20410;55.578;12.968;2023-06-01T14:56:46;20.40;1.00
34135;DHT22;20410;55.578;12.968;2023-06-01T14:59:12;20.40;1.00
34135;DHT22;20410;55.578;12.968;2023-06-01T15:01:38;20.30;1.00
34135;DHT22;20410;55.578;12.968;2023-06-01T15:04:06;20.20;1.00
34135;DHT22;20410;55.578;12.968;2023-06-01T15:06:31;20.20;1.00
34135;DHT22;20410;55.578;12.968;2023-06-01T15:08:57;20.10;1.00
34135;DHT22;20410;55.578;12.968;2023-06-01T15:11:23;20.20;1.00
34135;DHT22;20410;55.578;12.968;2023-06-01T15:13:48;20.20;1.00
34135;DHT22;20410;55.578;12.968;2023-06-01T15:16:15;19.90;1.00
34135;DHT22;20410;55.578;12.968;2023-06-01T15:18:41;19.90;1.00
34135;DHT22;20410;55.578;12.968;2023-06-01T15:21:06;19.80;1.00
34135;DHT22;20410;55.578;12.968;2023-06-01T15:23:32;20.00;1.00
34135;DHT22;20410;55.578;12.968;2023-06-01T15:25:58;20.20;1.00
34135;DHT22;20410;55.578;12.968;2023-06-01T15:28:24;20.20;1.00
34135;DHT22;20410;55.578;12.968;2023-06-01T15:30:50;20.20;1.00
34135;DHT22;20410;55.578;12.968;2023-06-01T15:33:16;20.20;1.00
34135;DHT22;20410;55.578;12.968;2023-06-01T15:35:41;20.30;1.00
34135;DHT22;20410;55.578;12.968;2023-06-01T15:38:07;20.20;1.00
34135;DHT22;20410;55.578;12.968;2023-06-01T15:40:33;19.90;1.00
34135;DHT22;20410;55.578;12.968;2023-06-01T15:42:58;19.80;1.00
34135;DHT22;20410;55.578;12.968;2023-06-01T15:45:24;19.80;1.00
34135;DHT22;20410;55.578;12.968;2023-06-01T15:47:50;19.80;1.00
34135;DHT22;20410;55.578;12.968;2023-06-01T15:50:16;19.80;1.00
34135;DHT22;20410;55.578;12.968;2023-06-01T15:52:41;19.90;1.00
34135;DHT22;20410;55.578;12.968;2023-06-01T15:55:07;20.10;1.00
34135;DHT22;20410;55.578;12.968;2023-06-01T15:57:33;19.90;1.00
34135;DHT22;20410;55.578;12.968;2023-06-01T15:59:59;19.90;1.00
34135;DHT22;20410;55.578;12.968;2023-06-01T16:02:24;19.70;1.00
34135;DHT22;20410;55.578;12.968;2023-06-01T16:04:50;19.60;1.00